METAR Data
IDs: Format: Raw Decoded Include TAF

Data at: 1057 UTC 15 Dec 2018

PAFE 150956Z AUTO 07005KT 10SM CLR M04/M04 A2959 RMK AO2 SLP032 T10391044 FZRANO
PAFE 150856Z AUTO 10003KT 10SM CLR M03/M04 A2957 RMK AO2 SLP026 T10281039 400221028 53028 FZRANO
PAFE 150656Z AUTO 09007G14KT 10SM CLR M01/M04 A2951 RMK AO2 SLP006 T10061039 FZRANO
PAFE 150556Z AUTO 04007G15KT 10SM CLR M01/M03 A2949 RMK AO2 SLP998 T10061033 10000 21022 53010 FZRANO
PAFE 150356Z AUTO 05004KT 10SM CLR M01/M04 A2947 RMK AO2 SLP991 T10111039 FZRANO
PAFE 150156Z AUTO 33004KT 10SM CLR M01/M04 A2946 RMK AO2 SLP987 T10061044 FZRANO
PAFE 142356Z AUTO 00000KT 10SM CLR 00/M04 A2944 RMK AO2 SLP980 T00001044 10022 21017 55005 FZRANO
PAFE 142256Z AUTO 28004KT 10SM CLR 02/M04 A2942 RMK AO2 SLP975 T00171044 FZRANO
PAFE 142156Z AUTO 18005KT 10SM CLR 02/M03 A2943 RMK AO2 SLP978 T00171033 FZRANO
PAFE 141956Z AUTO 09003KT 10SM FEW024 01/M02 A2948 RMK AO2 SLP995 T00061022 FZRANO
PAFE 141756Z AUTO 06004KT 10SM CLR M02/M03 A2949 RMK AO2 SLP000 T10171028 11006 21028 56007 FZRANO
PAFE 141656Z AUTO 00000KT 10SM CLR M01/M02 A2950 RMK AO2 SLP001 T10111022 FZRANO
PAFE 141623Z AUTO 01003KT 10SM BKN021 BKN028 M01/M02 A2950 RMK AO2 FZRANO
PAFE 141556Z AUTO 04004KT 10SM CLR M02/M03 A2951 RMK AO2 SLP007 T10221028 FZRANO
PAFE 141356Z AUTO 00000KT 10SM FEW020 SCT041 M02/M03 A2957 RMK AO2 SLP024 T10221028 FZRANO
PAFE 141256Z AUTO 04003KT 10SM SCT048 M03/M03 A2959 RMK AO2 SLP032 T10281033 FZRANO
PAFE 141156Z AUTO 07005KT 10SM CLR M02/M03 A2960 RMK AO2 SLP036 70004 T10221033 11006 21022 58011 FZRANO
PAFE 141056Z AUTO 06005KT 10SM OVC055 M02/M02 A2962 RMK AO2 SLP043 T10221022 FZRANO
PAFE 140956Z AUTO 07005KT 10SM CLR M02/M03 A2963 RMK AO2 SLP045 T10221028 FZRANO
PAFE 140856Z AUTO 07006KT 10SM CLR M02/M02 A2964 RMK AO2 SLP048 T10171022 400391017 58003 FZRANO
PAFE 140756Z AUTO 07006KT 10SM FEW055 M02/M02 A2965 RMK AO2 SLP052 T10171017 FZRANO
PAFE 140456Z AUTO 08003KT 10SM CLR M01/M01 A2964 RMK AO2 SLP051 T10061011 FZRANO
PAFE 140356Z AUTO 06005KT 10SM BKN065 00/M01 A2965 RMK AO2 SLP052 T00001006 FZRANO
PAFE 140256Z AUTO 07005KT 10SM CLR 01/M01 A2965 RMK AO2 SLP052 T00111006 51022 FZRANO
PAFE 140156Z AUTO 12004KT 10SM SCT040 BKN050 OVC075 02/00 A2964 RMK AO2 SLP048 T00170000 FZRANO
PAFE 140056Z AUTO 13005KT 10SM SCT034 BKN065 OVC080 02/00 A2961 RMK AO2 SLP039 T00220000 FZRANO
PAFE 132356Z AUTO 15007KT 10SM FEW028 OVC034 03/01 A2958 RMK AO2 SLP030 60000 T00280006 10039 20022 51051